Ashcott, United Kingdom
Current Conditions -  °F | °C
As of 4:50 PM on Saturday 27 Dec 2014 (Local Time) from EGDY Reporting Station
Few Clouds Few Clouds  
Wind Chill: 32°   Ceiling: Unl
Heat Index: 39°   Visibility: 6mi
Dew Point: 34°   Wind: 10mph
Humidity: 81%   Direction: 310°NW
Pressure: 29.83"   Gusts: NA
Location:  51.11°N, 2.98°W
Report Text: EGDY 271650Z AUTO 31009KT 9999 FEW060/// 04/01 Q1010
Loading
Personal Weather Stations






























Interactive Weather Map New forecast layout! Learn more

10-Day Weather Forecast

Advertisements
Track Severe Weather on mobile